createdAt,value
2023-05-03T00:01:02.566Z,9.03
2023-05-03T00:03:29.588Z,9.73
2023-05-03T00:05:56.740Z,8.07
2023-05-03T00:08:23.639Z,8.30
2023-05-03T00:10:50.738Z,16.47
2023-05-03T00:13:17.624Z,7.77
2023-05-03T00:15:44.482Z,7.50
2023-05-03T00:18:11.564Z,7.07
2023-05-03T00:20:38.562Z,7.00
2023-05-03T00:23:05.423Z,9.70
2023-05-03T00:25:32.300Z,8.00
2023-05-03T00:27:59.158Z,7.77
2023-05-03T00:30:26.085Z,6.00
2023-05-03T00:32:53.031Z,7.07
2023-05-03T00:35:20.170Z,7.50
2023-05-03T00:37:47.044Z,7.83
2023-05-03T00:40:18.632Z,11.37
2023-05-03T00:42:46.750Z,14.70
2023-05-03T00:45:13.645Z,13.00
2023-05-03T00:47:40.792Z,14.13
2023-05-03T00:50:09.882Z,15.60
2023-05-03T00:52:36.759Z,11.67
2023-05-03T00:55:03.818Z,10.00
2023-05-03T00:57:31.101Z,7.43
2023-05-03T00:59:59.164Z,8.70
2023-05-03T01:02:26.926Z,11.37
2023-05-03T01:04:55.284Z,6.60
2023-05-03T01:07:59.099Z,7.40
2023-05-03T01:10:54.967Z,9.50
2023-05-03T01:13:57.372Z,6.33
2023-05-03T01:16:54.526Z,6.50
2023-05-03T01:19:44.400Z,8.07
2023-05-03T01:22:48.243Z,6.40
2023-05-03T01:25:16.586Z,7.53
2023-05-03T01:27:43.634Z,6.77
2023-05-03T01:30:13.014Z,6.83
2023-05-03T01:33:19.003Z,6.73
2023-05-03T01:36:13.096Z,7.10
2023-05-03T01:38:40.365Z,7.13
2023-05-03T01:41:11.718Z,9.63
2023-05-03T01:43:40.438Z,8.03
2023-05-03T01:46:07.645Z,11.20
2023-05-03T01:48:34.537Z,8.83
2023-05-03T01:51:01.872Z,7.30
2023-05-03T01:53:28.779Z,7.47
2023-05-03T01:55:55.746Z,11.57
2023-05-03T01:58:22.709Z,6.97
2023-05-03T02:00:49.662Z,7.17
2023-05-03T02:03:16.580Z,7.30
2023-05-03T02:05:43.552Z,6.70
2023-05-03T02:08:10.407Z,7.47
2023-05-03T02:10:37.341Z,7.07
2023-05-03T02:13:04.277Z,7.43
2023-05-03T02:15:32.101Z,7.60
2023-05-03T02:17:59.016Z,7.43
2023-05-03T02:20:25.890Z,7.00
2023-05-03T02:22:52.841Z,8.40
2023-05-03T02:25:19.800Z,12.53
2023-05-03T02:27:46.673Z,6.90
2023-05-03T02:30:14.598Z,7.80
2023-05-03T02:32:41.516Z,9.63
2023-05-03T02:35:09.336Z,8.00
2023-05-03T02:37:36.289Z,7.10
2023-05-03T02:40:06.092Z,8.00
2023-05-03T02:42:33.067Z,7.73
2023-05-03T02:44:59.976Z,8.30
2023-05-03T02:47:27.233Z,8.00
2023-05-03T02:49:54.358Z,7.57
2023-05-03T02:52:21.315Z,8.03
2023-05-03T02:54:49.646Z,9.50
2023-05-03T02:57:16.563Z,8.97
2023-05-03T02:59:43.501Z,7.90
2023-05-03T03:02:10.371Z,8.30
2023-05-03T03:04:37.262Z,8.60
2023-05-03T03:07:04.141Z,8.33
2023-05-03T03:09:31.066Z,9.03
2023-05-03T03:11:57.961Z,8.50
2023-05-03T03:14:24.780Z,9.63
2023-05-03T03:16:51.931Z,8.90
2023-05-03T03:19:18.848Z,9.50
2023-05-03T03:21:46.142Z,9.43
2023-05-03T03:24:13.043Z,17.20
2023-05-03T03:26:39.945Z,26.33
2023-05-03T03:29:06.891Z,39.67
2023-05-03T03:31:33.820Z,39.10
2023-05-03T03:34:00.801Z,35.47
2023-05-03T03:36:28.612Z,29.97
2023-05-03T03:38:55.676Z,31.30
2023-05-03T03:41:23.112Z,34.80
2023-05-03T03:43:50.032Z,31.10
2023-05-03T03:46:17.475Z,36.90
2023-05-03T03:48:44.456Z,33.80
2023-05-03T03:51:11.589Z,30.53
2023-05-03T03:53:38.510Z,18.57
2023-05-03T03:56:06.039Z,13.43
2023-05-03T03:58:32.926Z,14.30
2023-05-03T04:01:00.839Z,15.57
2023-05-03T04:03:27.840Z,16.93
2023-05-03T04:05:54.722Z,17.63
2023-05-03T04:08:21.573Z,31.90
2023-05-03T04:10:48.439Z,30.60
2023-05-03T04:13:15.328Z,34.63
2023-05-03T04:15:42.221Z,34.83
2023-05-03T04:18:09.222Z,26.80
2023-05-03T04:20:36.852Z,22.87
2023-05-03T04:23:03.742Z,19.73
2023-05-03T04:25:32.218Z,16.33
2023-05-03T04:27:59.268Z,15.37
2023-05-03T04:30:26.276Z,14.13
2023-05-03T04:32:55.610Z,10.73
2023-05-03T04:35:22.723Z,14.50
2023-05-03T04:37:49.619Z,7.90
2023-05-03T04:40:17.346Z,8.00
2023-05-03T04:42:44.484Z,13.93
2023-05-03T04:45:11.893Z,7.70
2023-05-03T04:47:38.927Z,10.00
2023-05-03T04:50:08.716Z,12.00
2023-05-03T04:52:35.756Z,15.93
2023-05-03T04:55:03.771Z,10.73
2023-05-03T04:57:32.309Z,6.93
2023-05-03T04:59:59.363Z,11.47
2023-05-03T05:02:27.317Z,12.60
2023-05-03T05:04:54.473Z,14.33
2023-05-03T05:07:21.368Z,15.80
2023-05-03T05:09:48.254Z,11.23
2023-05-03T05:12:15.192Z,6.73
2023-05-03T05:14:42.099Z,5.50
2023-05-03T05:17:09.050Z,9.23
2023-05-03T05:19:36.029Z,6.50
2023-05-03T05:22:02.963Z,8.10
2023-05-03T05:24:29.850Z,5.57
2023-05-03T05:26:56.868Z,6.13
2023-05-03T05:29:24.550Z,11.13
2023-05-03T05:31:53.231Z,8.40
2023-05-03T05:34:20.263Z,5.10
2023-05-03T05:36:47.349Z,5.77
2023-05-03T05:39:14.321Z,5.03
2023-05-03T05:41:41.233Z,7.77
2023-05-03T05:44:08.236Z,7.83
2023-05-03T05:46:35.191Z,8.13
2023-05-03T05:49:02.088Z,7.67
2023-05-03T05:51:30.653Z,6.50
2023-05-03T05:53:58.537Z,9.47
2023-05-03T05:56:25.500Z,5.63
2023-05-03T05:58:52.368Z,5.00
2023-05-03T06:01:19.299Z,4.93
2023-05-03T06:03:46.370Z,4.60
2023-05-03T06:06:13.545Z,5.03
2023-05-03T06:08:40.549Z,4.50
2023-05-03T06:11:08.004Z,5.33
2023-05-03T06:13:38.559Z,3.90
2023-05-03T06:16:06.154Z,11.20
2023-05-03T06:18:33.096Z,3.57
2023-05-03T06:20:59.920Z,8.33
2023-05-03T06:23:28.208Z,9.17
2023-05-03T06:25:55.752Z,7.07
2023-05-03T06:28:22.758Z,6.30
2023-05-03T06:30:50.651Z,7.73
2023-05-03T06:33:17.748Z,5.60
2023-05-03T06:35:47.227Z,6.37
2023-05-03T06:38:14.306Z,6.97
2023-05-03T06:40:44.365Z,3.97
2023-05-03T06:43:11.234Z,6.47
2023-05-03T06:45:39.310Z,6.60
2023-05-03T06:48:06.843Z,4.70
2023-05-03T06:50:33.802Z,5.80
2023-05-03T06:53:00.757Z,5.20
2023-05-03T06:55:28.124Z,3.30
2023-05-03T06:57:55.123Z,4.70
2023-05-03T07:00:23.222Z,3.43
2023-05-03T07:02:50.319Z,4.70
2023-05-03T07:05:17.495Z,3.73
2023-05-03T07:07:44.559Z,3.30
2023-05-03T07:10:11.600Z,8.93
2023-05-03T07:12:38.473Z,6.10
2023-05-03T07:15:05.807Z,3.00
2023-05-03T07:17:32.879Z,6.87
2023-05-03T07:19:59.830Z,5.60
2023-05-03T07:22:27.593Z,2.67
2023-05-03T07:24:59.670Z,3.07
2023-05-03T07:27:27.168Z,3.03
2023-05-03T07:29:54.890Z,2.57
2023-05-03T07:32:22.563Z,2.70
2023-05-03T07:34:49.672Z,5.17
2023-05-03T07:37:17.517Z,1.73
2023-05-03T07:39:45.747Z,3.30
2023-05-03T07:42:12.834Z,2.53
2023-05-03T07:44:39.922Z,2.17
2023-05-03T07:47:06.927Z,5.50
2023-05-03T07:49:35.862Z,2.13
2023-05-03T07:52:03.211Z,4.90
2023-05-03T07:54:30.221Z,1.73
2023-05-03T07:56:57.177Z,3.63
2023-05-03T07:59:24.142Z,1.80
2023-05-03T08:01:51.164Z,4.13
2023-05-03T08:04:18.431Z,2.80
2023-05-03T08:06:46.371Z,2.47
2023-05-03T08:09:14.095Z,2.10
2023-05-03T08:11:43.755Z,1.77
2023-05-03T08:14:11.531Z,3.43
2023-05-03T08:16:39.014Z,5.20
2023-05-03T08:19:06.161Z,7.37
2023-05-03T08:21:33.654Z,1.70
2023-05-03T08:24:00.980Z,4.40
2023-05-03T08:26:29.931Z,3.30
2023-05-03T08:28:56.937Z,5.30
2023-05-03T08:31:24.075Z,2.40
2023-05-03T08:33:51.921Z,5.37
2023-05-03T08:36:19.078Z,9.07
2023-05-03T08:38:46.136Z,3.03
2023-05-03T08:41:31.141Z,2.20
2023-05-03T08:43:59.941Z,2.23
2023-05-03T08:46:28.621Z,2.10
2023-05-03T08:48:56.128Z,3.00
2023-05-03T08:51:24.095Z,3.80
2023-05-03T08:53:51.226Z,2.77
2023-05-03T08:56:34.745Z,10.13
2023-05-03T08:59:07.889Z,3.83
2023-05-03T09:01:39.112Z,2.37
2023-05-03T09:04:07.395Z,2.30
2023-05-03T09:06:35.332Z,3.17
2023-05-03T09:09:07.398Z,7.13
2023-05-03T09:11:36.161Z,1.97
2023-05-03T09:14:17.722Z,8.10
2023-05-03T09:16:46.471Z,2.30
2023-05-03T09:19:16.270Z,5.43
2023-05-03T09:21:45.049Z,4.53
2023-05-03T09:24:19.869Z,6.50
2023-05-03T09:26:49.796Z,3.63
2023-05-03T09:29:31.430Z,1.73
2023-05-03T09:32:06.131Z,2.83
2023-05-03T09:34:34.366Z,2.73
2023-05-03T09:37:01.542Z,24.67
2023-05-03T09:39:28.587Z,3.93
2023-05-03T09:41:56.020Z,2.20
2023-05-03T09:44:42.682Z,3.63
2023-05-03T09:47:10.315Z,2.00
2023-05-03T09:49:37.946Z,3.33
2023-05-03T09:52:06.462Z,6.73
2023-05-03T09:54:37.010Z,6.53
2023-05-03T09:57:08.389Z,7.00
2023-05-03T09:59:37.128Z,2.37
2023-05-03T10:02:07.329Z,4.87
2023-05-03T10:04:44.501Z,9.20
2023-05-03T10:07:14.748Z,2.60
2023-05-03T10:09:47.345Z,2.00
2023-05-03T10:12:17.555Z,3.10
2023-05-03T10:14:49.503Z,4.63
2023-05-03T10:17:46.290Z,5.27
2023-05-03T10:20:36.009Z,4.40
2023-05-03T10:23:10.953Z,5.00
2023-05-03T10:25:39.249Z,8.03
2023-05-03T10:28:10.133Z,2.63
2023-05-03T10:30:40.597Z,2.53
2023-05-03T10:33:29.792Z,3.30
2023-05-03T10:35:57.541Z,3.27
2023-05-03T10:38:26.827Z,4.40
2023-05-03T10:40:57.480Z,3.30
2023-05-03T10:43:50.555Z,5.30
2023-05-03T10:46:34.417Z,3.97
2023-05-03T10:49:30.858Z,2.67
2023-05-03T10:51:59.194Z,2.90
2023-05-03T10:54:26.326Z,3.47
2023-05-03T10:56:56.225Z,5.77
2023-05-03T10:59:26.114Z,3.20
2023-05-03T11:01:54.141Z,7.77
2023-05-03T11:04:34.030Z,3.27
2023-05-03T11:07:02.244Z,2.80
2023-05-03T11:09:34.007Z,9.17
2023-05-03T11:12:05.609Z,3.57
2023-05-03T11:14:32.503Z,4.27
2023-05-03T11:16:59.702Z,2.90
2023-05-03T11:19:26.961Z,3.37
2023-05-03T11:21:54.101Z,3.33
2023-05-03T11:24:21.239Z,3.97
2023-05-03T11:26:49.026Z,3.20
2023-05-03T11:29:17.182Z,12.47
2023-05-03T11:31:44.855Z,4.57
2023-05-03T11:34:12.900Z,3.30
2023-05-03T11:36:41.706Z,4.77
2023-05-03T11:39:09.274Z,9.10
2023-05-03T11:41:36.302Z,5.27
2023-05-03T11:44:16.180Z,11.03
2023-05-03T11:46:45.951Z,4.67
2023-05-03T11:49:18.636Z,3.17
2023-05-03T11:51:48.390Z,3.57
2023-05-03T11:54:25.439Z,3.50
2023-05-03T11:56:59.427Z,4.87
2023-05-03T11:59:39.168Z,5.73
2023-05-03T12:02:09.588Z,4.30
2023-05-03T12:04:45.292Z,4.80
2023-05-03T12:07:15.426Z,5.63
2023-05-03T12:09:52.578Z,14.93
2023-05-03T12:12:30.944Z,4.77
2023-05-03T12:15:03.858Z,5.20
2023-05-03T12:17:43.450Z,4.43
2023-05-03T12:22:52.509Z,4.90
2023-05-03T12:25:25.993Z,4.27
2023-05-03T12:28:15.802Z,5.43
2023-05-03T12:30:44.784Z,5.73
2023-05-03T12:33:15.401Z,3.70
2023-05-03T12:35:46.451Z,6.57
2023-05-03T12:38:16.756Z,8.40
2023-05-03T12:40:45.652Z,7.47
2023-05-03T12:43:12.891Z,6.03
2023-05-03T12:45:41.146Z,7.13
2023-05-03T12:48:09.143Z,4.87
2023-05-03T12:50:38.772Z,11.87
2023-05-03T12:53:09.424Z,6.57
2023-05-03T12:55:43.105Z,4.97
2023-05-03T13:01:03.601Z,5.00
2023-05-03T13:03:33.324Z,10.57
2023-05-03T13:06:12.556Z,5.43
2023-05-03T13:08:48.912Z,4.43
2023-05-03T13:11:19.419Z,4.40
2023-05-03T13:13:46.983Z,4.13
2023-05-03T13:16:14.634Z,7.43
2023-05-03T13:18:43.009Z,3.77
2023-05-03T13:21:11.241Z,5.10
2023-05-03T13:23:38.373Z,4.30
2023-05-03T13:26:07.229Z,4.80
2023-05-03T13:28:34.353Z,6.77
2023-05-03T13:31:01.700Z,6.17
2023-05-03T13:33:29.444Z,4.40
2023-05-03T13:35:56.757Z,7.37
2023-05-03T13:38:23.766Z,5.60
2023-05-03T13:40:50.663Z,4.57
2023-05-03T13:43:17.526Z,4.77
2023-05-03T13:45:44.464Z,4.77
2023-05-03T13:48:18.623Z,10.07
2023-05-03T13:50:46.380Z,5.27
2023-05-03T13:53:13.380Z,4.73
2023-05-03T13:55:40.330Z,6.70
2023-05-03T13:58:07.248Z,5.43
2023-05-03T14:00:34.131Z,5.47
2023-05-03T14:03:01.482Z,5.17
2023-05-03T14:05:28.456Z,9.67
2023-05-03T14:07:55.553Z,5.67
2023-05-03T14:10:22.859Z,6.03
2023-05-03T14:12:50.252Z,12.47
2023-05-03T14:15:17.568Z,5.07
2023-05-03T14:17:47.453Z,4.73
2023-05-03T14:20:17.507Z,4.77
2023-05-03T14:22:45.542Z,5.77
2023-05-03T14:25:12.807Z,6.50
2023-05-03T14:27:40.295Z,6.83
2023-05-03T14:30:10.789Z,4.77
2023-05-03T14:32:37.910Z,6.47
2023-05-03T14:35:05.254Z,4.77
2023-05-03T14:37:33.362Z,4.80
2023-05-03T14:40:00.448Z,8.93
2023-05-03T14:42:30.731Z,4.30
2023-05-03T14:44:57.838Z,5.13
2023-05-03T14:47:24.830Z,6.80
2023-05-03T14:49:52.251Z,6.50
2023-05-03T14:52:19.168Z,5.20
2023-05-03T14:54:46.121Z,8.30
2023-05-03T14:57:13.066Z,6.90
2023-05-03T14:59:39.985Z,4.70
2023-05-03T15:02:07.030Z,5.03
2023-05-03T15:04:36.408Z,5.00
2023-05-03T15:07:04.168Z,4.27
2023-05-03T15:09:31.841Z,5.87
2023-05-03T15:11:59.329Z,4.07
2023-05-03T15:14:26.475Z,19.27
2023-05-03T15:16:53.607Z,3.77
2023-05-03T15:19:21.296Z,6.00
2023-05-03T15:21:51.652Z,4.90
2023-05-03T15:24:19.078Z,11.60
2023-05-03T15:26:47.057Z,4.70
2023-05-03T15:29:15.717Z,3.90
2023-05-03T15:31:43.454Z,4.10
2023-05-03T15:34:13.305Z,13.63
2023-05-03T15:36:40.864Z,6.80
2023-05-03T15:39:09.578Z,3.87
2023-05-03T15:41:36.619Z,6.70
2023-05-03T15:44:05.495Z,4.27
2023-05-03T15:46:33.790Z,5.93
2023-05-03T15:49:06.885Z,11.07
2023-05-03T15:51:33.897Z,3.70
2023-05-03T15:54:01.636Z,4.70
2023-05-03T15:56:28.788Z,4.13
2023-05-03T15:58:56.496Z,4.60
2023-05-03T16:01:24.177Z,6.57
2023-05-03T16:03:51.486Z,5.80
2023-05-03T16:06:18.493Z,5.73
2023-05-03T16:08:45.774Z,5.07
2023-05-03T16:11:13.477Z,5.53
2023-05-03T16:13:40.659Z,5.40
2023-05-03T16:16:07.845Z,3.70
2023-05-03T16:18:34.915Z,5.67
2023-05-03T16:21:02.723Z,3.77
2023-05-03T16:23:29.858Z,3.80
2023-05-03T16:25:56.808Z,9.37
2023-05-03T16:28:23.695Z,9.93
2023-05-03T16:30:50.718Z,4.77
2023-05-03T16:33:18.313Z,5.43
2023-05-03T16:35:45.213Z,7.63
2023-05-03T16:38:12.133Z,5.43
2023-05-03T16:40:40.429Z,4.50
2023-05-03T16:43:07.761Z,4.07
2023-05-03T16:45:34.758Z,3.27
2023-05-03T16:48:04.853Z,8.53
2023-05-03T16:50:33.160Z,6.00
2023-05-03T16:53:00.149Z,3.37
2023-05-03T16:55:27.270Z,12.63
2023-05-03T16:57:54.100Z,2.90
2023-05-03T17:00:21.983Z,3.03
2023-05-03T17:02:49.207Z,3.30
2023-05-03T17:05:16.283Z,3.43
2023-05-03T17:07:43.269Z,6.73
2023-05-03T17:10:10.603Z,3.67
2023-05-03T17:12:37.693Z,3.97
2023-05-03T17:15:05.138Z,5.00
2023-05-03T17:17:32.872Z,4.60
2023-05-03T17:20:00.146Z,6.70
2023-05-03T17:22:28.181Z,8.40
2023-05-03T17:24:57.454Z,6.00
2023-05-03T17:27:27.287Z,4.07
2023-05-03T17:29:58.010Z,5.70
2023-05-03T17:32:25.135Z,3.43
2023-05-03T17:34:52.154Z,3.70
2023-05-03T17:37:19.015Z,3.30
2023-05-03T17:39:46.119Z,4.93
2023-05-03T17:42:13.002Z,3.70
2023-05-03T17:44:40.966Z,11.00
2023-05-03T17:47:08.195Z,3.73
2023-05-03T17:49:35.333Z,4.43
2023-05-03T17:52:04.244Z,3.87
2023-05-03T17:54:31.254Z,4.33
2023-05-03T17:56:58.226Z,5.73
2023-05-03T17:59:25.147Z,5.30
2023-05-03T18:01:52.010Z,10.17
2023-05-03T18:04:18.936Z,3.57
2023-05-03T18:06:45.821Z,3.47
2023-05-03T18:09:13.371Z,8.17
2023-05-03T18:11:41.404Z,4.27
2023-05-03T18:14:08.330Z,7.20
2023-05-03T18:16:35.957Z,12.40
2023-05-03T18:19:03.945Z,3.60
2023-05-03T18:21:31.076Z,7.93
2023-05-03T18:23:58.117Z,4.23
2023-05-03T18:26:25.486Z,9.27
2023-05-03T18:28:53.634Z,9.60
2023-05-03T18:31:21.586Z,8.73
2023-05-03T18:33:49.001Z,4.50
2023-05-03T18:36:16.981Z,4.33
2023-05-03T18:38:44.312Z,5.80
2023-05-03T18:41:14.482Z,9.33
2023-05-03T18:43:42.973Z,10.67
2023-05-03T18:46:11.844Z,12.43
2023-05-03T18:48:38.760Z,16.17
2023-05-03T18:51:05.793Z,8.10
2023-05-03T18:53:34.407Z,12.53
2023-05-03T18:56:02.592Z,10.43
2023-05-03T18:58:33.015Z,31.30
2023-05-03T19:01:00.735Z,11.63
2023-05-03T19:03:31.748Z,6.90
2023-05-03T19:06:04.231Z,10.00
2023-05-03T19:08:31.675Z,7.80
2023-05-03T19:11:07.336Z,8.73
2023-05-03T19:13:34.662Z,10.60
2023-05-03T19:16:01.690Z,7.90
2023-05-03T19:18:28.678Z,5.90
2023-05-03T19:20:56.705Z,13.73
2023-05-03T19:23:23.830Z,12.60
2023-05-03T19:25:50.805Z,5.73
2023-05-03T19:28:17.763Z,7.40
2023-05-03T19:30:45.973Z,6.10
2023-05-03T19:33:12.983Z,12.40
2023-05-03T19:35:40.622Z,8.57
2023-05-03T19:38:07.742Z,7.50
2023-05-03T19:40:34.626Z,5.63
2023-05-03T19:43:02.376Z,13.30
2023-05-03T19:45:29.218Z,13.47
2023-05-03T19:47:56.349Z,7.83
2023-05-03T19:50:23.313Z,5.13
2023-05-03T19:52:53.583Z,6.10
2023-05-03T19:55:21.162Z,7.90
2023-05-03T19:57:49.113Z,6.40
2023-05-03T20:00:17.464Z,8.17
2023-05-03T20:02:44.544Z,7.10
2023-05-03T20:05:11.588Z,5.53
2023-05-03T20:07:38.483Z,9.93
2023-05-03T20:10:05.989Z,12.17
2023-05-03T20:12:33.957Z,5.90
2023-05-03T20:15:01.084Z,10.83
2023-05-03T20:17:28.125Z,5.20
2023-05-03T20:19:55.176Z,8.43
2023-05-03T20:22:22.432Z,9.23
2023-05-03T20:24:50.675Z,8.47
2023-05-03T20:27:19.203Z,7.47
2023-05-03T20:29:46.110Z,6.00
2023-05-03T20:32:13.045Z,6.13
2023-05-03T20:34:40.392Z,7.40
2023-05-03T20:37:07.291Z,7.90
2023-05-03T20:39:35.370Z,17.70
2023-05-03T20:42:02.524Z,11.07
2023-05-03T20:44:29.379Z,8.57
2023-05-03T20:46:56.260Z,9.20
2023-05-03T20:49:23.152Z,7.87
2023-05-03T20:51:50.132Z,6.10
2023-05-03T20:54:17.155Z,11.63
2023-05-03T20:56:44.068Z,6.40
2023-05-03T20:59:10.947Z,5.70
2023-05-03T21:01:41.135Z,6.93
2023-05-03T21:04:08.116Z,12.20
2023-05-03T21:06:38.143Z,6.40
2023-05-03T21:09:05.925Z,5.40
2023-05-03T21:11:32.821Z,9.27
2023-05-03T21:14:01.702Z,18.83
2023-05-03T21:16:29.115Z,9.73
2023-05-03T21:18:56.145Z,5.70
2023-05-03T21:21:23.111Z,5.80
2023-05-03T21:23:50.066Z,5.90
2023-05-03T21:26:16.969Z,7.60
2023-05-03T21:28:43.863Z,17.03
2023-05-03T21:31:10.929Z,6.03
2023-05-03T21:33:38.042Z,8.23
2023-05-03T21:36:05.379Z,9.83
2023-05-03T21:38:32.690Z,6.07
2023-05-03T21:41:04.944Z,6.77
2023-05-03T21:43:32.744Z,5.33
2023-05-03T21:46:01.159Z,7.40
2023-05-03T21:48:28.421Z,5.80
2023-05-03T21:50:55.270Z,5.83
2023-05-03T21:53:22.164Z,8.00
2023-05-03T21:55:49.121Z,5.03
2023-05-03T21:58:16.033Z,10.90
2023-05-03T22:00:44.283Z,4.63
2023-05-03T22:03:11.295Z,4.37
2023-05-03T22:05:39.421Z,4.27
2023-05-03T22:08:06.593Z,11.07
2023-05-03T22:10:34.126Z,10.00
2023-05-03T22:13:01.076Z,10.00
2023-05-03T22:15:30.663Z,7.03
2023-05-03T22:17:57.614Z,10.47
2023-05-03T22:20:24.823Z,8.70
2023-05-03T22:22:51.703Z,6.30
2023-05-03T22:25:27.256Z,6.57
2023-05-03T22:27:54.906Z,5.40
2023-05-03T22:30:22.385Z,5.83
2023-05-03T22:32:49.666Z,4.43
2023-05-03T22:35:16.843Z,6.60
2023-05-03T22:37:43.771Z,9.90
2023-05-03T22:40:11.142Z,9.10
2023-05-03T22:42:38.063Z,6.83
2023-05-03T22:45:05.720Z,4.63
2023-05-03T22:47:32.827Z,3.93
2023-05-03T22:49:59.712Z,5.20
2023-05-03T22:52:26.660Z,5.73
2023-05-03T22:55:00.642Z,3.83
2023-05-03T22:57:27.601Z,6.70
2023-05-03T22:59:54.662Z,11.10
2023-05-03T23:02:21.660Z,10.10
2023-05-03T23:04:48.744Z,4.80
2023-05-03T23:07:15.637Z,14.87
2023-05-03T23:09:42.498Z,7.43
2023-05-03T23:12:09.337Z,5.70
2023-05-03T23:14:36.532Z,6.40
2023-05-03T23:17:03.393Z,9.87
2023-05-03T23:19:30.319Z,7.90
2023-05-03T23:21:57.194Z,5.30
2023-05-03T23:24:24.040Z,9.47
2023-05-03T23:26:51.058Z,5.17
2023-05-03T23:29:18.498Z,6.23
2023-05-03T23:31:45.912Z,4.47
2023-05-03T23:34:13.476Z,4.47
2023-05-03T23:36:40.673Z,7.77
2023-05-03T23:39:07.930Z,9.37
2023-05-03T23:41:34.896Z,4.53
2023-05-03T23:44:01.887Z,10.73
2023-05-03T23:46:28.828Z,5.80
2023-05-03T23:48:55.815Z,8.37
2023-05-03T23:51:22.718Z,8.30
2023-05-03T23:53:49.646Z,6.77
2023-05-03T23:56:16.745Z,9.23
2023-05-03T23:58:43.641Z,7.10
